Time;durP1;ratioP1;P1;durP2;ratioP2;P2;SDS_P1;SDS_P2;PMS_P1;PMS_P2;Temp;Humidity;BMP_temperature;BMP_pressure;BME280_temperature;BME280_humidity;BME280_pressure;Samples;Min_cycle;Max_cycle;Signal;HPM_P1;HPM_P2
2022/08/05 00:02:23;;;;;;;6.55;2.67;;;19.90;99.90;;;;;;5051340;28;20592;-75
2022/08/05 00:04:49;;;;;;;7.63;2.33;;;19.80;99.90;;;;;;5050666;28;20037;-76
2022/08/05 00:07:14;;;;;;;6.10;3.08;;;19.80;99.90;;;;;;5051194;28;20087;-76
2022/08/05 00:09:40;;;;;;;3.20;2.88;;;19.80;99.90;;;;;;5051158;28;20029;-76
2022/08/05 00:12:06;;;;;;;3.80;3.03;;;20.00;99.90;;;;;;5045658;28;20156;-76
2022/08/05 00:14:31;;;;;;;8.05;3.05;;;19.80;99.90;;;;;;5043987;28;20040;-76
2022/08/05 00:16:57;;;;;;;5.53;2.97;;;20.10;99.90;;;;;;5052757;28;20027;-75
2022/08/05 00:19:23;;;;;;;6.50;2.80;;;19.80;99.90;;;;;;5035354;28;20636;-75
2022/08/05 00:21:49;;;;;;;8.00;3.38;;;19.70;99.90;;;;;;5050947;28;20035;-76
2022/08/05 00:24:14;;;;;;;4.97;2.67;;;19.80;99.90;;;;;;5051273;28;20108;-76
2022/08/05 00:26:40;;;;;;;8.65;2.33;;;19.70;99.90;;;;;;5050859;28;20029;-76
2022/08/05 00:29:05;;;;;;;12.25;2.83;;;19.70;99.90;;;;;;5050898;28;20045;-76
2022/08/05 00:31:31;;;;;;;5.07;3.15;;;19.70;99.90;;;;;;5050478;28;20031;-76
2022/08/05 00:33:56;;;;;;;7.45;2.90;;;20.80;99.90;;;;;;5053015;28;20033;-76
2022/08/05 00:36:23;;;;;;;4.88;2.13;;;19.70;99.90;;;;;;5052923;28;20104;-76
2022/08/05 00:38:49;;;;;;;6.47;3.08;;;19.60;99.90;;;;;;5051503;28;20024;-76
2022/08/05 00:41:29;;;;;;;4.65;3.60;;;19.60;99.90;;;;;;5050545;28;20021;-76
2022/08/05 00:43:55;;;;;;;4.72;3.15;;;19.50;99.90;;;;;;5050942;28;20017;-76
2022/08/05 00:46:21;;;;;;;7.13;2.92;;;19.90;99.90;;;;;;5050474;28;20032;-76
2022/08/05 00:48:46;;;;;;;8.18;2.90;;;19.40;99.90;;;;;;5050068;28;20025;-76
2022/08/05 00:51:13;;;;;;;7.13;2.80;;;19.20;99.90;;;;;;5050563;28;20363;-76
2022/08/05 00:53:38;;;;;;;4.60;2.83;;;19.40;99.90;;;;;;5050549;28;20020;-76
2022/08/05 00:56:04;;;;;;;6.35;3.63;;;19.30;99.90;;;;;;5050653;28;20028;-76
2022/08/05 00:58:30;;;;;;;4.38;3.17;;;19.30;99.90;;;;;;5050088;28;20024;-76
2022/08/05 01:00:56;;;;;;;3.95;2.53;;;19.30;99.90;;;;;;5050745;28;20025;-76
2022/08/05 01:03:23;;;;;;;4.72;3.20;;;19.30;99.90;;;;;;5049649;28;20328;-76
2022/08/05 01:05:51;;;;;;;5.22;2.78;;;19.30;99.90;;;;;;5050258;28;20028;-76
2022/08/05 01:08:18;;;;;;;5.28;3.42;;;19.30;99.90;;;;;;5050584;28;20036;-76
2022/08/05 01:10:58;;;;;;;8.45;3.58;;;19.30;99.90;;;;;;5050632;28;20097;-76
2022/08/05 01:13:52;;;;;;;6.50;2.78;;;19.30;99.90;;;;;;5050094;28;20029;-76
2022/08/05 01:16:37;;;;;;;4.60;3.25;;;19.30;99.90;;;;;;5049624;28;20025;-76
2022/08/05 01:19:34;;;;;;;7.22;3.78;;;19.30;99.90;;;;;;5019347;28;20033;-77
2022/08/05 01:22:23;;;;;;;7.35;3.42;;;19.20;99.90;;;;;;5015272;28;20051;-76
2022/08/05 01:24:58;;;;;;;5.38;3.72;;;19.40;99.90;;;;;;5050352;28;20405;-76
2022/08/05 01:27:29;;;;;;;4.82;3.58;;;19.20;99.90;;;;;;5049738;28;20074;-76
2022/08/05 01:30:00;;;;;;;5.22;3.60;;;19.20;99.90;;;;;;5031977;28;20052;-76
2022/08/05 01:32:28;;;;;;;6.25;3.60;;;20.30;99.90;;;;;;5049065;28;20112;-77
2022/08/05 01:34:58;;;;;;;5.35;3.70;;;19.10;99.90;;;;;;5049696;28;20124;-76
2022/08/05 01:37:53;;;;;;;6.63;3.38;;;19.10;99.90;;;;;;5049669;28;20045;-77
2022/08/05 01:40:25;;;;;;;5.18;3.40;;;19.20;99.90;;;;;;5023150;28;20064;-76
2022/08/05 01:42:51;;;;;;;6.20;3.42;;;19.10;99.90;;;;;;5049407;28;20513;-77
2022/08/05 01:45:19;;;;;;;9.07;4.20;;;19.00;99.90;;;;;;5048816;28;20043;-77
2022/08/05 01:47:47;;;;;;;10.43;3.80;;;19.10;99.90;;;;;;5049687;28;20028;-76
2022/08/05 01:50:27;;;;;;;7.88;3.90;;;19.20;99.90;;;;;;5049467;28;20029;-77
2022/08/05 01:52:55;;;;;;;8.88;3.45;;;19.30;99.90;;;;;;5049260;28;20021;-77
2022/08/05 01:55:23;;;;;;;6.07;3.75;;;19.20;99.90;;;;;;5031403;28;20082;-76
2022/08/05 01:57:51;;;;;;;8.40;3.45;;;19.20;99.90;;;;;;5050691;28;20018;-76
2022/08/05 02:00:17;;;;;;;8.50;4.13;;;19.20;99.90;;;;;;5049638;28;20362;-77
2022/08/05 02:02:54;;;;;;;6.28;3.53;;;19.20;99.90;;;;;;5049833;28;20029;-77
2022/08/05 02:05:23;;;;;;;8.40;4.10;;;19.20;99.90;;;;;;5049227;28;20037;-77
2022/08/05 02:07:49;;;;;;;5.78;3.30;;;19.40;99.90;;;;;;5049335;28;20063;-77
2022/08/05 02:10:15;;;;;;;9.45;3.80;;;19.10;99.90;;;;;;5048819;28;20061;-76
2022/08/05 02:12:54;;;;;;;4.82;3.30;;;19.10;99.90;;;;;;5049084;28;20456;-76
2022/08/05 02:15:49;;;;;;;4.10;3.00;;;19.30;99.90;;;;;;5048634;28;20051;-76
2022/08/05 02:18:37;;;;;;;5.63;3.70;;;19.20;99.90;;;;;;5048955;28;20029;-77
2022/08/05 02:21:09;;;;;;;8.50;3.35;;;19.20;99.90;;;;;;5049049;28;20393;-76
2022/08/05 02:23:38;;;;;;;6.03;3.65;;;19.10;99.90;;;;;;5049171;28;20029;-77
2022/08/05 02:26:06;;;;;;;5.90;3.55;;;19.10;99.90;;;;;;5049290;28;20393;-76
2022/08/05 02:28:36;;;;;;;7.75;3.97;;;19.20;99.90;;;;;;5048130;28;20013;-76
2022/08/05 02:31:06;;;;;;;8.38;4.10;;;19.20;99.90;;;;;;5048993;28;20067;-77
2022/08/05 02:33:40;;;;;;;5.82;3.53;;;19.10;99.90;;;;;;5052105;28;20525;-77
2022/08/05 02:36:10;;;;;;;6.03;3.30;;;19.10;99.90;;;;;;5053110;28;20013;-76
2022/08/05 02:38:37;;;;;;;3.90;3.50;;;19.10;99.90;;;;;;5053204;28;20469;-77
2022/08/05 02:41:04;;;;;;;7.50;4.43;;;19.00;99.90;;;;;;5053027;28;20052;-77
2022/08/05 02:43:32;;;;;;;6.50;3.72;;;19.20;99.90;;;;;;5052234;28;20027;-77
2022/08/05 02:45:59;;;;;;;5.07;3.05;;;19.10;99.90;;;;;;5052965;28;20033;-76
2022/08/05 02:48:26;;;;;;;4.85;3.65;;;19.00;99.90;;;;;;5053459;28;20052;-77
2022/08/05 02:50:53;;;;;;;6.15;4.53;;;19.10;99.90;;;;;;5053076;28;20029;-76
2022/08/05 02:53:20;;;;;;;6.85;3.95;;;19.00;99.90;;;;;;5052687;28;20023;-76
2022/08/05 02:55:48;;;;;;;6.68;4.22;;;18.90;99.90;;;;;;5052710;28;20022;-76
2022/08/05 02:58:16;;;;;;;8.48;4.03;;;19.00;99.90;;;;;;5051988;28;20384;-76
2022/08/05 03:00:43;;;;;;;8.45;3.95;;;18.90;99.90;;;;;;5052618;28;20378;-76
2022/08/05 03:03:11;;;;;;;6.65;4.10;;;18.80;99.90;;;;;;5052664;28;20478;-77
2022/08/05 03:05:39;;;;;;;6.10;3.13;;;18.80;99.90;;;;;;5052678;28;20108;-76
2022/08/05 03:08:05;;;;;;;6.28;3.50;;;18.80;99.90;;;;;;5052282;28;20035;-77
2022/08/05 03:10:30;;;;;;;9.68;4.55;;;18.80;99.90;;;;;;5052122;28;20020;-77
2022/08/05 03:12:57;;;;;;;7.93;3.78;;;18.90;99.90;;;;;;5049823;28;20032;-77
2022/08/05 03:15:23;;;;;;;6.20;3.55;;;19.90;99.90;;;;;;5051408;28;20104;-76
2022/08/05 03:17:48;;;;;;;8.25;4.10;;;18.90;99.90;;;;;;5050275;28;20096;-76
2022/08/05 03:20:14;;;;;;;8.80;4.55;;;18.80;99.90;;;;;;5051806;28;20036;-77
2022/08/05 03:22:39;;;;;;;6.47;3.70;;;18.80;99.90;;;;;;5052038;28;20056;-77
2022/08/05 03:25:07;;;;;;;6.50;3.45;;;18.90;99.90;;;;;;5052493;28;20044;-76
2022/08/05 03:27:35;;;;;;;5.45;3.92;;;18.90;99.90;;;;;;5051289;28;20025;-77
2022/08/05 03:30:00;;;;;;;5.05;3.83;;;18.90;99.90;;;;;;5051976;28;20498;-77
2022/08/05 03:32:26;;;;;;;6.85;4.05;;;19.00;99.90;;;;;;5052067;28;20032;-76
2022/08/05 03:34:52;;;;;;;8.00;3.83;;;18.90;99.90;;;;;;5052401;28;20087;-76
2022/08/05 03:37:19;;;;;;;8.32;5.03;;;18.90;99.90;;;;;;5052243;28;20112;-77
2022/08/05 03:39:58;;;;;;;8.93;4.45;;;18.90;99.90;;;;;;5051578;28;20521;-76
2022/08/05 03:42:24;;;;;;;7.65;3.42;;;19.00;99.90;;;;;;5033325;28;20058;-77
2022/08/05 03:44:50;;;;;;;6.05;4.43;;;18.90;99.90;;;;;;5051516;28;20596;-77
2022/08/05 03:47:16;;;;;;;6.90;4.70;;;19.80;99.90;;;;;;5052701;28;20048;-76
2022/08/05 03:49:41;;;;;;;8.77;3.83;;;18.80;99.90;;;;;;5052429;28;20470;-77
2022/08/05 03:52:11;;;;;;;11.15;4.65;;;18.80;99.90;;;;;;5033897;28;20051;-76
2022/08/05 03:54:50;;;;;;;8.43;3.38;;;18.80;99.90;;;;;;5051455;28;20493;-77
2022/08/05 03:57:18;;;;;;;6.47;4.57;;;18.70;99.90;;;;;;5033741;28;20481;-76
2022/08/05 03:59:54;;;;;;;5.43;3.88;;;18.80;99.90;;;;;;5052322;28;20042;-76
2022/08/05 04:02:24;;;;;;;5.82;3.83;;;19.00;99.90;;;;;;5034127;28;20025;-76
2022/08/05 04:04:50;;;;;;;6.63;3.50;;;18.90;99.90;;;;;;5051329;28;20343;-76
2022/08/05 04:07:16;;;;;;;4.38;3.90;;;18.40;99.90;;;;;;5052718;28;20056;-76
2022/08/05 04:09:42;;;;;;;5.50;4.28;;;18.90;99.90;;;;;;5052945;28;20425;-76
2022/08/05 04:12:08;;;;;;;5.55;4.20;;;18.30;99.90;;;;;;5052566;28;20031;-76
2022/08/05 04:14:35;;;;;;;8.13;4.47;;;18.70;99.90;;;;;;5052394;28;20025;-76
2022/08/05 04:17:01;;;;;;;6.97;4.15;;;19.30;99.90;;;;;;5051283;28;20474;-77
2022/08/05 04:19:28;;;;;;;7.00;4.88;;;18.70;99.90;;;;;;5052101;28;20104;-76
2022/08/05 04:21:54;;;;;;;4.93;4.20;;;18.70;99.90;;;;;;5051756;28;20029;-76
2022/08/05 04:24:20;;;;;;;6.85;4.40;;;18.60;99.90;;;;;;5051346;28;20025;-76
2022/08/05 04:26:45;;;;;;;5.03;3.83;;;18.60;99.90;;;;;;5050719;28;20071;-76
2022/08/05 04:29:11;;;;;;;8.48;5.82;;;18.60;99.90;;;;;;5052626;28;20067;-76
2022/08/05 04:31:37;;;;;;;5.00;3.75;;;18.40;99.90;;;;;;5051483;28;20133;-76
2022/08/05 04:34:02;;;;;;;5.75;4.50;;;18.60;99.90;;;;;;5050833;28;20514;-76
2022/08/05 04:36:28;;;;;;;6.15;3.83;;;18.30;99.90;;;;;;5050786;28;20055;-76
2022/08/05 04:38:53;;;;;;;9.23;4.75;;;18.40;99.90;;;;;;5032891;28;20028;-77
2022/08/05 04:41:19;;;;;;;8.65;3.75;;;18.30;99.90;;;;;;5050093;28;20044;-76
2022/08/05 04:43:45;;;;;;;7.95;4.00;;;18.40;99.90;;;;;;5040401;28;20025;-76
2022/08/05 04:46:11;;;;;;;4.95;3.80;;;18.50;99.90;;;;;;5028832;28;20104;-76
2022/08/05 04:48:36;;;;;;;8.55;3.80;;;18.30;99.90;;;;;;5050606;28;20487;-76
2022/08/05 04:51:02;;;;;;;7.95;4.10;;;18.40;99.90;;;;;;5050465;28;20031;-76
2022/08/05 04:53:28;;;;;;;4.90;3.30;;;18.60;99.90;;;;;;5049869;28;20513;-76
2022/08/05 04:55:53;;;;;;;9.60;4.80;;;18.30;99.90;;;;;;5049469;28;20032;-76
2022/08/05 04:58:19;;;;;;;7.43;3.78;;;18.40;99.90;;;;;;5036162;28;20094;-77
2022/08/05 05:00:44;;;;;;;5.15;3.90;;;18.40;99.90;;;;;;5050414;28;20035;-76
2022/08/05 05:03:11;;;;;;;6.32;3.88;;;18.60;99.90;;;;;;5045630;28;20029;-75
2022/08/05 05:05:37;;;;;;;8.07;4.43;;;18.50;99.90;;;;;;5049754;28;20478;-76
2022/08/05 05:08:05;;;;;;;4.80;4.30;;;18.50;99.90;;;;;;5049413;28;20111;-76
2022/08/05 05:10:37;;;;;;;6.90;3.83;;;18.50;99.90;;;;;;5049463;28;20021;-76
2022/08/05 05:13:02;;;;;;;6.75;4.10;;;18.60;99.90;;;;;;5049527;28;20556;-76
2022/08/05 05:15:28;;;;;;;7.28;3.72;;;18.30;99.90;;;;;;5048910;28;20088;-76
2022/08/05 05:17:53;;;;;;;6.00;4.40;;;19.50;99.90;;;;;;5049256;28;20051;-76
2022/08/05 05:20:19;;;;;;;7.60;3.42;;;18.50;99.90;;;;;;5049012;28;20106;-76
2022/08/05 05:22:44;;;;;;;7.35;3.25;;;18.50;99.90;;;;;;5048394;28;20025;-76
2022/08/05 05:25:11;;;;;;;5.03;3.83;;;19.00;99.90;;;;;;5047716;28;20493;-77
2022/08/05 05:27:37;;;;;;;8.38;5.13;;;18.50;99.90;;;;;;5049062;28;20025;-76
2022/08/05 05:30:03;;;;;;;5.75;3.97;;;18.70;99.90;;;;;;5049339;28;20045;-76
2022/08/05 05:32:28;;;;;;;4.85;3.78;;;18.40;99.90;;;;;;5031672;28;20021;-76
2022/08/05 05:34:54;;;;;;;10.32;4.70;;;18.40;99.90;;;;;;5049635;28;20427;-76
2022/08/05 05:37:19;;;;;;;7.03;4.00;;;18.60;99.90;;;;;;5049313;28;20021;-76
2022/08/05 05:39:45;;;;;;;6.32;3.67;;;18.60;99.90;;;;;;5049451;28;20501;-76
2022/08/05 05:42:10;;;;;;;7.32;4.30;;;18.50;99.90;;;;;;5038304;28;20384;-76
2022/08/05 05:44:36;;;;;;;10.85;3.75;;;18.70;99.90;;;;;;5046574;28;20390;-76
2022/08/05 05:47:01;;;;;;;7.43;3.78;;;19.60;99.90;;;;;;5049461;28;20029;-77
2022/08/05 05:49:27;;;;;;;7.78;3.50;;;18.70;99.90;;;;;;5049361;28;20027;-76
2022/08/05 05:51:53;;;;;;;7.25;3.53;;;18.70;99.90;;;;;;5051337;28;20021;-76
2022/08/05 05:54:19;;;;;;;7.68;3.63;;;18.80;99.90;;;;;;5050473;28;20025;-76
2022/08/05 05:56:45;;;;;;;6.78;4.35;;;18.90;99.90;;;;;;5049839;28;20029;-76
2022/08/05 05:59:10;;;;;;;10.43;3.97;;;18.70;99.90;;;;;;5049294;28;20025;-76
2022/08/05 06:01:38;;;;;;;6.18;3.90;;;18.60;99.90;;;;;;5048983;28;20033;-76
2022/08/05 06:04:05;;;;;;;8.18;3.88;;;19.60;99.90;;;;;;5049508;28;20025;-76
2022/08/05 06:06:31;;;;;;;7.65;3.80;;;18.70;99.90;;;;;;5048195;28;20033;-76
2022/08/05 06:08:56;;;;;;;4.95;3.45;;;18.70;99.90;;;;;;5049204;28;20078;-76
2022/08/05 06:11:22;;;;;;;7.07;4.00;;;18.80;99.90;;;;;;5049059;28;20161;-76
2022/08/05 06:13:47;;;;;;;5.68;3.30;;;18.80;99.90;;;;;;5048743;28;20025;-76
2022/08/05 06:16:13;;;;;;;7.03;3.53;;;18.80;99.90;;;;;;5048724;28;20083;-76
2022/08/05 06:18:38;;;;;;;7.50;4.43;;;18.80;99.90;;;;;;5031058;28;20036;-76
2022/08/05 06:21:04;;;;;;;7.20;3.80;;;18.90;99.90;;;;;;5049113;28;20390;-76
2022/08/05 06:23:30;;;;;;;4.15;2.80;;;18.90;99.90;;;;;;5049822;28;20033;-77
2022/08/05 06:25:56;;;;;;;6.90;3.65;;;19.00;99.90;;;;;;5049510;28;20029;-75
2022/08/05 06:28:21;;;;;;;6.28;3.10;;;19.00;99.90;;;;;;5048200;28;20039;-76
2022/08/05 06:30:47;;;;;;;7.93;3.95;;;19.30;99.90;;;;;;5047561;28;20151;-76
2022/08/05 06:33:13;;;;;;;8.73;3.35;;;19.10;99.90;;;;;;5029511;28;20104;-76
2022/08/05 06:35:38;;;;;;;7.68;3.13;;;19.00;99.90;;;;;;5047489;28;20385;-76
2022/08/05 06:38:04;;;;;;;8.00;2.95;;;19.10;99.90;;;;;;5048852;28;20100;-74
2022/08/05 06:40:29;;;;;;;5.22;2.80;;;19.10;99.90;;;;;;5048336;28;20055;-75
2022/08/05 06:42:55;;;;;;;4.90;2.45;;;19.30;99.90;;;;;;5049668;28;20492;-75
2022/08/05 06:45:21;;;;;;;5.78;3.05;;;19.00;99.90;;;;;;5047874;28;20044;-74
2022/08/05 06:47:47;;;;;;;6.93;2.83;;;19.10;99.90;;;;;;5047291;28;20374;-77
2022/08/05 06:50:12;;;;;;;6.40;2.58;;;19.10;99.90;;;;;;5046958;28;20029;-77
2022/08/05 06:52:38;;;;;;;3.30;2.05;;;20.20;99.90;;;;;;5047672;28;20033;-77
2022/08/05 06:55:04;;;;;;;5.18;3.22;;;20.10;99.90;;;;;;5029469;28;20115;-76
2022/08/05 06:57:30;;;;;;;7.65;2.53;;;19.20;99.90;;;;;;5047188;28;20032;-76
2022/08/05 06:59:55;;;;;;;4.32;2.30;;;19.40;99.90;;;;;;5046643;28;20147;-72
2022/08/05 07:02:21;;;;;;;4.53;1.98;;;19.50;99.90;;;;;;5047365;28;20112;-75
2022/08/05 07:04:46;;;;;;;6.60;2.40;;;19.50;99.90;;;;;;5045284;28;20036;-75
2022/08/05 07:07:12;;;;;;;5.88;1.80;;;19.60;99.90;;;;;;5047035;28;20029;-76
2022/08/05 07:09:37;;;;;;;4.68;2.03;;;19.70;99.90;;;;;;5047537;28;20025;-76
2022/08/05 07:12:03;;;;;;;2.38;2.13;;;20.20;99.90;;;;;;5029129;28;20025;-75
2022/08/05 07:17:13;;;;;;;4.50;2.33;;;19.90;99.90;;;;;;5046811;28;20024;-74
2022/08/05 07:19:38;;;;;;;7.03;2.30;;;19.90;99.90;;;;;;5049856;28;20025;-76
2022/08/05 07:22:04;;;;;;;3.42;2.15;;;20.00;99.90;;;;;;5050740;28;20025;-77
2022/08/05 07:24:29;;;;;;;5.22;1.83;;;20.30;99.90;;;;;;5033313;28;20155;-75
2022/08/05 07:26:55;;;;;;;6.72;1.88;;;20.10;99.90;;;;;;5050673;28;20037;-76
2022/08/05 07:29:21;;;;;;;2.90;1.63;;;20.20;99.90;;;;;;5051825;28;20045;-76
2022/08/05 07:31:46;;;;;;;3.83;1.77;;;20.30;99.90;;;;;;5050205;28;20120;-76
2022/08/05 07:34:12;;;;;;;3.80;1.90;;;20.40;99.90;;;;;;5049795;28;20028;-76
2022/08/05 07:36:37;;;;;;;5.70;1.92;;;19.80;99.90;;;;;;5050632;28;20032;-78
2022/08/05 07:39:06;;;;;;;4.72;1.70;;;20.30;99.90;;;;;;5051484;28;20033;-76
2022/08/05 07:41:32;;;;;;;2.72;2.08;;;20.30;99.90;;;;;;5051237;28;20036;-76
2022/08/05 07:43:58;;;;;;;5.82;1.90;;;20.30;99.90;;;;;;5050881;28;20029;-76
2022/08/05 07:46:26;;;;;;;2.80;1.23;;;20.40;99.90;;;;;;5051401;28;20040;-76
2022/08/05 07:48:56;;;;;;;4.28;1.52;;;20.50;99.90;;;;;;5050967;28;20025;-76
2022/08/05 07:51:22;;;;;;;1.77;1.30;;;20.60;99.90;;;;;;5051322;28;20509;-76
2022/08/05 07:53:47;;;;;;;3.88;1.60;;;20.60;99.90;;;;;;5051184;28;20029;-76
2022/08/05 07:56:13;;;;;;;1.95;1.30;;;20.80;99.90;;;;;;5051526;28;20033;-76
2022/08/05 07:58:38;;;;;;;3.58;1.38;;;20.90;99.80;;;;;;5052102;28;20044;-75
2022/08/05 08:01:05;;;;;;;4.80;1.20;;;20.80;99.50;;;;;;5051932;28;20473;-75
2022/08/05 08:03:31;;;;;;;3.85;1.10;;;20.90;99.30;;;;;;5051172;28;20029;-75
2022/08/05 08:05:56;;;;;;;3.38;1.10;;;21.00;98.80;;;;;;5050909;28;20036;-75
2022/08/05 08:08:22;;;;;;;3.92;1.17;;;21.50;98.30;;;;;;5033213;28;20469;-75
2022/08/05 08:10:47;;;;;;;4.88;1.13;;;21.10;97.70;;;;;;5033094;28;20028;-76
2022/08/05 08:13:13;;;;;;;1.67;0.90;;;21.10;97.50;;;;;;5033557;28;20116;-76
2022/08/05 08:15:38;;;;;;;3.33;1.00;;;21.00;97.50;;;;;;5034512;28;20056;-75
2022/08/05 08:18:04;;;;;;;3.67;1.40;;;21.60;97.60;;;;;;5052010;28;20508;-76
2022/08/05 08:20:30;;;;;;;3.30;1.17;;;21.30;97.00;;;;;;5052382;28;20136;-76
2022/08/05 08:22:58;;;;;;;3.65;1.77;;;21.30;96.80;;;;;;5051080;28;20033;-75
2022/08/05 08:25:24;;;;;;;1.77;0.90;;;21.20;96.90;;;;;;5050737;28;20029;-76
2022/08/05 08:27:50;;;;;;;1.88;0.90;;;21.10;96.80;;;;;;5050962;28;20033;-76
2022/08/05 08:30:15;;;;;;;1.88;0.98;;;21.40;96.70;;;;;;5050534;28;20044;-76
2022/08/05 08:32:41;;;;;;;5.32;1.55;;;22.00;96.90;;;;;;5050000;28;20052;-77
2022/08/05 08:35:07;;;;;;;2.58;1.08;;;21.40;96.70;;;;;;5050954;28;20476;-76
2022/08/05 08:37:33;;;;;;;2.55;0.95;;;21.40;96.30;;;;;;5049737;28;20025;-76
2022/08/05 08:39:59;;;;;;;4.10;1.10;;;21.40;96.00;;;;;;5051040;28;20036;-75
2022/08/05 08:42:25;;;;;;;4.30;1.30;;;21.50;95.70;;;;;;5050704;28;20035;-75
2022/08/05 08:44:53;;;;;;;3.50;1.05;;;21.60;95.70;;;;;;5050265;28;20052;-75
2022/08/05 08:47:22;;;;;;;6.35;1.75;;;21.70;95.90;;;;;;5049635;28;20489;-76
2022/08/05 08:49:51;;;;;;;4.47;1.00;;;21.70;95.70;;;;;;5049182;28;20021;-76
2022/08/05 08:52:22;;;;;;;2.33;0.90;;;21.80;95.70;;;;;;5048655;28;20025;-77
2022/08/05 08:54:52;;;;;;;3.95;1.20;;;22.30;96.00;;;;;;5043834;28;20094;-75
2022/08/05 08:57:17;;;;;;;5.38;1.20;;;21.60;96.00;;;;;;5031944;28;20027;-74
2022/08/05 08:59:43;;;;;;;3.78;1.75;;;21.50;95.80;;;;;;5045456;28;20450;-76
2022/08/05 09:02:10;;;;;;;2.03;1.02;;;21.40;95.90;;;;;;5038430;28;20079;-75
2022/08/05 09:04:36;;;;;;;5.40;1.17;;;21.20;96.20;;;;;;5043013;28;20064;-75
2022/08/05 09:07:07;;;;;;;3.70;1.13;;;21.40;96.20;;;;;;5036140;28;20036;-76
2022/08/05 09:09:34;;;;;;;3.85;1.13;;;21.50;96.20;;;;;;5049940;28;20103;-76
2022/08/05 09:12:04;;;;;;;2.30;1.30;;;21.50;95.80;;;;;;5028871;28;20040;-76
2022/08/05 09:14:37;;;;;;;5.10;1.10;;;21.50;95.50;;;;;;5049341;28;20028;-76
2022/08/05 09:17:08;;;;;;;7.78;1.50;;;21.50;95.60;;;;;;5049709;28;20032;-76
2022/08/05 09:19:34;;;;;;;3.28;0.90;;;21.70;95.50;;;;;;5046044;28;20474;-76
2022/08/05 09:22:02;;;;;;;2.85;0.98;;;21.80;94.80;;;;;;5047137;28;20082;-76
2022/08/05 09:24:28;;;;;;;2.83;0.70;;;22.00;94.20;;;;;;5047894;28;20469;-76
2022/08/05 09:26:56;;;;;;;1.30;0.50;;;21.80;93.70;;;;;;5049416;28;20025;-76
2022/08/05 09:29:44;;;;;;;2.50;0.65;;;22.10;93.60;;;;;;5031241;28;20049;-76
2022/08/05 09:32:10;;;;;;;1.77;0.40;;;22.40;93.30;;;;;;5028722;28;20032;-76
2022/08/05 09:34:50;;;;;;;1.02;0.50;;;23.10;92.50;;;;;;5049754;28;20048;-76
2022/08/05 09:37:25;;;;;;;2.83;0.65;;;22.10;92.10;;;;;;5049729;28;20032;-76
2022/08/05 09:39:51;;;;;;;2.20;1.10;;;22.10;91.90;;;;;;5031444;28;20017;-76
2022/08/05 09:42:19;;;;;;;2.00;0.60;;;22.10;91.60;;;;;;5048894;28;20079;-76
2022/08/05 09:44:47;;;;;;;1.95;0.50;;;23.10;92.00;;;;;;5048882;28;20103;-75
2022/08/05 09:47:17;;;;;;;1.55;0.40;;;22.10;91.50;;;;;;5049872;28;20418;-76
2022/08/05 09:49:48;;;;;;;0.40;0.40;;;22.10;91.50;;;;;;5052010;28;20025;-76
2022/08/05 09:52:25;;;;;;;2.05;0.35;;;22.10;90.50;;;;;;5049707;28;20199;-74
2022/08/05 09:55:06;;;;;;;1.25;0.40;;;22.20;90.10;;;;;;5049048;28;20024;-75
2022/08/05 09:57:33;;;;;;;1.10;0.40;;;22.20;88.30;;;;;;5041134;28;20041;-74
2022/08/05 10:00:00;;;;;;;0.75;0.25;;;22.90;88.90;;;;;;5048977;28;20017;-74
2022/08/05 10:02:37;;;;;;;1.98;0.75;;;22.40;88.10;;;;;;5047176;28;20025;-74
2022/08/05 10:05:15;;;;;;;1.95;0.35;;;22.60;88.20;;;;;;5046388;28;20111;-74
2022/08/05 10:07:55;;;;;;;0.85;0.30;;;22.90;87.60;;;;;;5040078;28;20049;-73
2022/08/05 10:10:24;;;;;;;1.55;0.30;;;23.20;85.90;;;;;;5048141;28;20028;-74
2022/08/05 10:12:56;;;;;;;1.50;0.32;;;23.10;85.10;;;;;;5046355;28;20087;-73
2022/08/05 10:15:24;;;;;;;1.13;0.22;;;23.20;84.90;;;;;;5042847;28;20028;-74
2022/08/05 10:18:13;;;;;;;0.85;0.20;;;23.10;84.60;;;;;;5045727;28;20013;-74
2022/08/05 10:20:48;;;;;;;0.93;0.20;;;22.90;82.30;;;;;;5024801;28;20104;-76
2022/08/05 10:23:18;;;;;;;2.15;0.35;;;22.90;82.80;;;;;;5048028;28;20113;-74
2022/08/05 10:25:43;;;;;;;0.77;0.30;;;23.00;81.80;;;;;;5048616;28;20552;-75
2022/08/05 10:28:10;;;;;;;1.85;0.30;;;23.10;80.30;;;;;;5044923;28;20100;-76
2022/08/05 10:30:37;;;;;;;1.10;0.30;;;23.20;80.30;;;;;;5048276;28;20041;-73
2022/08/05 10:33:03;;;;;;;1.45;0.28;;;23.50;80.00;;;;;;5046478;28;20075;-73
2022/08/05 10:35:30;;;;;;;1.00;0.30;;;23.50;79.70;;;;;;5047795;28;20408;-74
2022/08/05 10:37:59;;;;;;;0.77;0.52;;;23.50;78.80;;;;;;5047980;28;20029;-73
2022/08/05 10:40:35;;;;;;;2.38;0.28;;;23.50;78.60;;;;;;5047758;28;20106;-73
2022/08/05 10:43:10;;;;;;;1.83;0.40;;;23.60;75.40;;;;;;5045562;28;20035;-74
2022/08/05 10:45:36;;;;;;;2.03;0.22;;;23.60;75.70;;;;;;5029342;28;20044;-73
2022/08/05 10:48:31;;;;;;;0.40;0.20;;;23.50;73.90;;;;;;5046934;28;20033;-74
2022/08/05 10:51:01;;;;;;;0.73;0.25;;;23.50;72.90;;;;;;5045818;28;20025;-74
2022/08/05 10:53:57;;;;;;;1.38;0.30;;;23.40;73.60;;;;;;5047222;28;20479;-74
2022/08/05 10:56:27;;;;;;;2.25;0.30;;;23.30;74.50;;;;;;5038892;28;20067;-75
2022/08/05 10:58:53;;;;;;;0.82;0.30;;;23.20;74.60;;;;;;5052448;28;20465;-74
2022/08/05 11:01:36;;;;;;;2.08;0.28;;;23.50;72.30;;;;;;5049976;28;20044;-74
2022/08/05 11:04:16;;;;;;;4.10;1.27;;;22.90;72.00;;;;;;5050617;28;20116;-74
2022/08/05 11:06:57;;;;;;;0.85;0.35;;;23.00;72.00;;;;;;5051723;28;20043;-74
2022/08/05 11:09:25;;;;;;;0.90;0.28;;;22.90;73.80;;;;;;5051882;28;20025;-74
2022/08/05 11:11:52;;;;;;;3.25;0.40;;;23.00;73.50;;;;;;5031599;28;20028;-74
2022/08/05 11:14:28;;;;;;;0.50;0.30;;;23.20;73.60;;;;;;5052089;28;20108;-74
2022/08/05 11:17:32;;;;;;;0.50;0.20;;;23.50;72.80;;;;;;5050240;28;20029;-73
2022/08/05 11:19:58;;;;;;;2.40;0.30;;;23.80;70.10;;;;;;5051946;28;20013;-74
2022/08/05 11:22:47;;;;;;;0.35;0.28;;;24.00;69.20;;;;;;5051929;28;20036;-75
2022/08/05 11:25:42;;;;;;;0.77;0.10;;;24.10;66.90;;;;;;5029199;28;20079;-75
2022/08/05 11:28:11;;;;;;;9.82;0.43;;;24.10;66.50;;;;;;5052109;28;20045;-74
2022/08/05 11:30:55;;;;;;;0.90;0.13;;;24.00;68.00;;;;;;5033582;28;20037;-74
2022/08/05 11:33:28;;;;;;;1.75;0.20;;;24.00;69.00;;;;;;5077806;22;20163;-70
2022/08/05 11:36:04;;;;;;;3.97;0.57;;;24.00;68.90;;;;;;5051014;28;20555;-70
2022/08/05 11:38:42;;;;;;;1.77;0.30;;;24.00;66.40;;;;;;5047597;28;20028;-70
2022/08/05 11:41:16;;;;;;;3.05;0.50;;;23.90;68.00;;;;;;5050867;28;20470;-71
2022/08/05 11:44:06;;;;;;;2.15;0.50;;;24.10;65.60;;;;;;5047987;28;20166;-71
2022/08/05 11:46:33;;;;;;;0.85;0.20;;;24.20;64.30;;;;;;5039108;28;20401;-72
2022/08/05 11:49:00;;;;;;;1.35;0.30;;;24.80;65.40;;;;;;5050053;28;20017;-71
2022/08/05 11:51:27;;;;;;;0.98;0.25;;;24.00;65.20;;;;;;5050995;28;20021;-72
2022/08/05 11:53:54;;;;;;;2.90;0.50;;;24.10;65.50;;;;;;5051114;28;20059;-72
2022/08/05 11:56:21;;;;;;;3.78;0.35;;;23.90;65.60;;;;;;5050705;28;20052;-72
2022/08/05 11:58:48;;;;;;;0.93;0.32;;;23.90;65.30;;;;;;5053928;28;20386;-72
2022/08/05 12:01:14;;;;;;;1.80;0.30;;;23.90;65.20;;;;;;5051138;28;20017;-72
2022/08/05 12:03:55;;;;;;;0.52;0.30;;;24.00;65.70;;;;;;5046961;28;20051;-72
2022/08/05 12:06:29;;;;;;;0.40;0.20;;;24.20;63.80;;;;;;5052666;28;20388;-72
2022/08/05 12:08:56;;;;;;;2.17;0.30;;;24.20;64.20;;;;;;5047871;28;20429;-72
2022/08/05 12:11:26;;;;;;;1.52;0.20;;;24.10;63.70;;;;;;5067280;28;20052;-75
2022/08/05 12:13:59;;;;;;;1.02;0.30;;;24.00;63.00;;;;;;5070884;28;20469;-72
2022/08/05 12:16:27;;;;;;;0.90;0.15;;;24.10;63.20;;;;;;5070327;28;20085;-73
2022/08/05 12:18:53;;;;;;;1.40;0.20;;;23.90;61.60;;;;;;5062252;28;20111;-73
2022/08/05 12:21:26;;;;;;;1.60;0.20;;;26.60;63.20;;;;;;5070331;28;20504;-73
2022/08/05 12:23:52;;;;;;;0.50;0.20;;;24.00;62.50;;;;;;5058020;28;20033;-73
2022/08/05 12:26:18;;;;;;;1.23;0.30;;;24.30;61.90;;;;;;5050138;28;20111;-73
2022/08/05 12:28:43;;;;;;;0.32;0.10;;;24.00;61.80;;;;;;5049949;28;20025;-73
2022/08/05 12:31:09;;;;;;;0.20;0.20;;;24.10;62.00;;;;;;5048882;28;20025;-73
2022/08/05 12:33:35;;;;;;;0.52;0.20;;;24.20;61.80;;;;;;5050179;28;20759;-72
2022/08/05 12:36:02;;;;;;;1.40;0.20;;;24.00;61.60;;;;;;5050404;28;20079;-73
2022/08/05 12:38:27;;;;;;;1.65;0.28;;;23.90;61.60;;;;;;5049517;28;20022;-74
2022/08/05 12:40:55;;;;;;;0.68;0.45;;;23.70;62.50;;;;;;5050823;28;20036;-74
2022/08/05 12:43:21;;;;;;;2.25;0.40;;;24.50;63.90;;;;;;5056719;28;20025;-73
2022/08/05 12:45:51;;;;;;;1.00;0.30;;;23.70;63.70;;;;;;5049995;28;20037;-73
2022/08/05 12:48:16;;;;;;;1.85;0.22;;;23.60;63.90;;;;;;5049663;28;20051;-74
2022/08/05 12:50:42;;;;;;;2.42;0.20;;;23.90;62.40;;;;;;5049870;28;20041;-73
2022/08/05 12:53:14;;;;;;;0.47;0.20;;;23.90;62.80;;;;;;5049570;28;20108;-74
2022/08/05 12:55:41;;;;;;;0.90;0.13;;;23.90;63.80;;;;;;5049907;28;20040;-76
2022/08/05 12:58:07;;;;;;;1.83;0.25;;;24.10;62.50;;;;;;5049893;28;20329;-74